Time;durP1;ratioP1;P1;durP2;ratioP2;P2;SDS_P1;SDS_P2;PMS_P1;PMS_P2;Temp;Humidity;BMP_temperature;BMP_pressure;BME280_temperature;BME280_humidity;BME280_pressure;Samples;Min_cycle;Max_cycle;Signal;HPM_P1;HPM_P2
2022/05/21 00:03:25;;;;;;;7.40;3.95;;;;;;;16.54;100.00;96367.22;10370450;28;20198;-74
2022/05/21 00:08:25;;;;;;;5.00;4.03;;;;;;;16.57;100.00;96364.97;10370254;28;20731;-75
2022/05/21 00:13:26;;;;;;;8.25;4.68;;;;;;;16.56;100.00;96383.69;10370168;28;20193;-75
2022/05/21 00:18:27;;;;;;;8.77;3.92;;;;;;;16.63;100.00;96376.59;10352959;28;20198;-74
2022/05/21 00:23:30;;;;;;;6.53;4.63;;;;;;;16.48;100.00;96391.84;10369754;28;20559;-74
2022/05/21 00:28:30;;;;;;;7.63;5.03;;;;;;;16.35;100.00;96390.78;10352389;28;20283;-75
2022/05/21 00:33:31;;;;;;;6.57;4.68;;;;;;;16.30;100.00;96377.34;10352905;28;20208;-75
2022/05/21 00:38:32;;;;;;;8.65;4.20;;;;;;;16.21;100.00;96389.13;10383459;28;20185;-75
2022/05/21 00:43:38;;;;;;;7.07;4.35;;;;;;;16.01;100.00;96395.16;10392644;28;20189;-75
2022/05/21 00:48:39;;;;;;;8.95;4.25;;;;;;;15.91;100.00;96410.59;10376920;28;20215;-75
2022/05/21 00:53:41;;;;;;;6.97;4.22;;;;;;;15.93;100.00;96421.78;10376339;28;20240;-75
2022/05/21 01:04:01;;;;;;;13.70;7.43;;;;;;;14.42;100.00;96501.97;10376231;28;20217;-76
2022/05/21 01:09:02;;;;;;;13.00;9.32;;;;;;;13.91;100.00;96504.63;10375749;28;20193;-76
2022/05/21 01:14:03;;;;;;;11.25;8.80;;;;;;;13.54;100.00;96520.31;10375793;28;20189;-76
2022/05/21 01:19:08;;;;;;;11.18;7.20;;;;;;;13.38;100.00;96544.13;10358122;28;20564;-75
2022/05/21 01:24:10;;;;;;;9.45;6.78;;;;;;;13.35;100.00;96529.53;10357390;28;20229;-75
2022/05/21 01:29:21;;;;;;;6.88;6.00;;;;;;;13.25;100.00;96546.53;10357944;28;20232;-75
2022/05/21 01:34:22;;;;;;;6.38;5.03;;;;;;;13.18;100.00;96547.25;10374888;28;20200;-75
2022/05/21 01:39:22;;;;;;;6.00;4.10;;;;;;;13.12;100.00;96549.75;10341272;28;20240;-75
2022/05/21 01:44:37;;;;;;;5.20;4.00;;;;;;;12.96;100.00;96554.13;10356424;28;20217;-74
2022/05/21 01:49:39;;;;;;;4.13;3.50;;;;;;;12.97;100.00;96570.72;10374077;28;20653;-74
2022/05/21 01:54:39;;;;;;;4.60;3.92;;;;;;;13.03;100.00;96593.69;10355963;28;20764;-74
2022/05/21 01:59:40;;;;;;;3.70;3.40;;;;;;;13.04;100.00;96576.94;10374201;28;20271;-74
2022/05/21 02:04:40;;;;;;;6.22;3.55;;;;;;;13.01;100.00;96596.50;10373495;28;20224;-74
2022/05/21 02:09:40;;;;;;;3.40;3.10;;;;;;;12.88;100.00;96606.78;10373528;28;20189;-74
2022/05/21 02:14:41;;;;;;;4.38;2.63;;;;;;;12.79;100.00;96608.63;10373472;28;20658;-75
2022/05/21 02:19:41;;;;;;;7.00;2.67;;;;;;;12.79;100.00;96632.28;10373108;28;20195;-75
2022/05/21 02:24:42;;;;;;;4.47;3.10;;;;;;;12.74;100.00;96621.50;10373034;28;20221;-75
2022/05/21 02:29:43;;;;;;;2.88;2.60;;;;;;;12.69;100.00;96615.91;10372657;28;20192;-76
2022/05/21 02:34:43;;;;;;;6.97;3.15;;;;;;;12.60;100.00;96611.69;10355043;28;20196;-75
2022/05/21 02:39:44;;;;;;;3.20;2.90;;;;;;;12.59;100.00;96625.84;10372571;28;20205;-74
2022/05/21 02:44:44;;;;;;;3.60;2.80;;;;;;;12.54;100.00;96630.78;10372073;28;20221;-75
2022/05/21 02:49:44;;;;;;;5.38;3.20;;;;;;;12.62;100.00;96639.44;10372173;28;20200;-75
2022/05/21 02:54:45;;;;;;;3.67;3.13;;;;;;;12.56;100.00;96632.25;10371486;28;20755;-74
2022/05/21 02:59:48;;;;;;;3.20;2.90;;;;;;;12.40;100.00;96622.59;10371413;28;20755;-74
2022/05/21 03:04:50;;;;;;;3.72;3.38;;;;;;;12.33;100.00;96626.91;10371501;28;20230;-74
2022/05/21 03:15:10;;;;;;;3.53;3.22;;;;;;;12.19;100.00;96632.84;10371286;28;20185;-74
2022/05/21 03:20:13;;;;;;;8.60;4.43;;;;;;;12.14;100.00;96643.88;10371392;28;20192;-74
2022/05/21 03:25:13;;;;;;;5.10;3.67;;;;;;;12.01;100.00;96649.66;10370752;28;20304;-74
2022/05/21 03:30:17;;;;;;;4.10;3.80;;;;;;;12.03;100.00;96657.34;10371081;28;20182;-74
2022/05/21 03:35:18;;;;;;;4.93;4.28;;;;;;;11.95;100.00;96666.06;10370624;28;20208;-74
2022/05/21 03:40:22;;;;;;;10.35;5.05;;;;;;;11.93;100.00;96673.31;10370924;28;20192;-74
2022/05/21 03:45:22;;;;;;;9.25;5.40;;;;;;;11.82;100.00;96666.53;10370474;28;20319;-74
2022/05/21 03:50:25;;;;;;;7.18;4.90;;;;;;;11.80;100.00;96672.94;10370572;28;20215;-74
2022/05/21 03:55:26;;;;;;;6.88;5.18;;;;;;;11.70;100.00;96683.59;10370158;28;20594;-74
2022/05/21 04:00:27;;;;;;;9.43;5.63;;;;;;;11.84;100.00;96701.31;10370220;28;20197;-74
2022/05/21 04:05:28;;;;;;;6.90;5.72;;;;;;;11.88;100.00;96702.63;10370218;28;20213;-73
2022/05/21 04:10:28;;;;;;;8.40;5.88;;;;;;;11.77;100.00;96709.00;10373722;28;20198;-74
2022/05/21 04:15:28;;;;;;;7.10;5.45;;;;;;;11.77;100.00;96721.31;10378273;28;20200;-74
2022/05/21 04:20:29;;;;;;;7.97;5.68;;;;;;;11.85;100.00;96723.97;10377762;28;20197;-74
2022/05/21 04:25:30;;;;;;;7.43;5.60;;;;;;;12.02;100.00;96730.06;10377544;28;20306;-74
2022/05/21 04:30:31;;;;;;;7.70;5.65;;;;;;;12.28;100.00;96739.53;10377572;28;20288;-74
2022/05/21 04:40:51;;;;;;;7.25;5.70;;;;;;;12.35;100.00;96739.72;10377283;28;20201;-74
2022/05/21 04:45:54;;;;;;;9.93;6.00;;;;;;;12.28;100.00;96755.28;10376471;28;20213;-74
2022/05/21 04:50:58;;;;;;;7.55;5.90;;;;;;;12.06;100.00;96754.97;10377023;28;20190;-74
2022/05/21 04:55:59;;;;;;;11.77;5.25;;;;;;;12.10;100.00;96755.50;10376186;28;20356;-75
2022/05/21 05:01:04;;;;;;;8.48;4.68;;;;;;;12.08;97.40;96737.28;10376386;28;20284;-75
2022/05/21 05:06:05;;;;;;;5.43;4.88;;;;;;;12.22;96.18;96735.78;10376267;28;20221;-74
2022/05/21 05:11:05;;;;;;;10.10;4.28;;;;;;;12.60;92.88;96738.66;10375977;28;20193;-75
2022/05/21 05:16:06;;;;;;;5.32;3.78;;;;;;;12.74;91.59;96744.19;10358637;28;20680;-75
2022/05/21 05:21:06;;;;;;;3.83;3.25;;;;;;;12.79;91.02;96742.72;10375390;28;20691;-75
2022/05/21 05:26:07;;;;;;;3.47;3.05;;;;;;;12.63;89.31;96759.34;10375347;28;20213;-75
2022/05/21 05:31:08;;;;;;;3.15;2.60;;;;;;;12.66;88.59;96752.94;10375362;28;20181;-74
2022/05/21 05:36:09;;;;;;;5.32;2.75;;;;;;;12.94;88.06;96749.88;10375015;28;20527;-74
2022/05/21 05:41:09;;;;;;;5.80;2.35;;;;;;;12.79;85.61;96740.06;10374972;28;20190;-74
2022/05/21 05:46:10;;;;;;;4.45;2.05;;;;;;;13.14;83.67;96734.50;10374780;28;20243;-73
2022/05/21 05:51:10;;;;;;;2.58;2.25;;;;;;;12.84;83.79;96740.38;10375241;28;20197;-74
2022/05/21 05:56:13;;;;;;;4.28;2.35;;;;;;;12.84;83.40;96748.25;10384934;28;20233;-74
2022/05/21 06:01:13;;;;;;;2.78;1.95;;;;;;;12.83;85.79;96769.47;10393937;28;20193;-74
2022/05/21 06:06:14;;;;;;;2.55;2.35;;;;;;;12.52;84.34;96758.88;10385456;28;20581;-74
2022/05/21 06:11:15;;;;;;;6.90;2.60;;;;;;;12.61;84.34;96766.56;10374296;28;20292;-74
2022/05/21 06:16:16;;;;;;;5.85;2.83;;;;;;;12.10;86.70;96787.81;10373606;28;20189;-74
2022/05/21 06:21:16;;;;;;;5.47;2.80;;;;;;;12.47;85.65;96783.84;10373445;28;21015;-74
2022/05/21 06:26:17;;;;;;;5.47;2.72;;;;;;;12.97;84.08;96781.94;10355172;28;20209;-74
2022/05/21 06:31:17;;;;;;;4.85;2.83;;;;;;;12.50;84.74;96790.59;10372751;28;20661;-73
2022/05/21 06:36:18;;;;;;;3.13;2.35;;;;;;;13.01;85.53;96801.63;10372406;28;20196;-74
2022/05/21 06:41:18;;;;;;;3.95;2.53;;;;;;;12.74;84.50;96802.88;10372836;28;20280;-74
2022/05/21 06:46:18;;;;;;;4.82;2.25;;;;;;;13.22;83.14;96792.34;10371983;28;20774;-74
2022/05/21 06:51:19;;;;;;;3.38;2.42;;;;;;;13.25;80.88;96770.16;10372173;28;20595;-74
2022/05/21 06:56:19;;;;;;;4.78;2.60;;;;;;;13.38;81.27;96788.84;10371786;28;20323;-74
2022/05/21 07:01:20;;;;;;;2.60;2.15;;;;;;;12.64;82.61;96820.63;10371573;28;20203;-74
2022/05/21 07:11:39;;;;;;;5.93;2.17;;;;;;;12.54;84.47;96822.59;10371448;28;20518;-74
2022/05/21 07:16:41;;;;;;;3.40;2.03;;;;;;;13.05;82.44;96815.25;10371490;28;20201;-74
2022/05/21 07:21:41;;;;;;;2.15;1.95;;;;;;;13.64;81.45;96808.78;10371300;28;20197;-76
2022/05/21 07:26:46;;;;;;;5.32;2.25;;;;;;;13.81;79.19;96791.88;10353525;28;20225;-75
2022/05/21 07:31:46;;;;;;;3.72;1.75;;;;;;;13.40;77.88;96771.09;10371120;28;20201;-74
2022/05/21 07:36:47;;;;;;;2.00;1.70;;;;;;;14.46;75.31;96750.19;10370927;28;20601;-74
2022/05/21 07:41:47;;;;;;;2.45;1.98;;;;;;;14.37;76.34;96767.91;10371058;28;20193;-74
2022/05/21 07:46:47;;;;;;;4.32;1.60;;;;;;;14.80;72.62;96725.94;10378075;28;20217;-74
2022/05/21 07:51:48;;;;;;;4.30;1.75;;;;;;;14.63;74.15;96753.50;10379192;28;20200;-75
2022/05/21 07:56:48;;;;;;;2.45;1.60;;;;;;;15.03;69.58;96697.84;10378703;28;20256;-74
2022/05/21 08:01:48;;;;;;;2.47;1.70;;;;;;;14.36;70.65;96720.66;10378733;28;20192;-74
2022/05/21 08:06:49;;;;;;;3.08;1.70;;;;;;;15.30;71.30;96735.91;10378162;28;20221;-75
2022/05/21 08:11:49;;;;;;;3.92;1.30;;;;;;;16.56;66.08;96656.88;10378278;28;20207;-75
2022/05/21 08:16:50;;;;;;;1.88;1.40;;;;;;;15.98;65.51;96665.06;10377972;28;20284;-75
2022/05/21 08:21:50;;;;;;;2.22;1.50;;;;;;;16.43;66.10;96685.91;10377937;28;20208;-74
2022/05/21 08:27:00;;;;;;;3.10;1.48;;;;;;;17.11;61.89;96597.91;10377313;28;20271;-74
2022/05/21 08:32:03;;;;;;;5.88;2.00;;;;;;;16.91;63.43;96634.91;10377489;28;20565;-75
2022/05/21 08:37:03;;;;;;;2.65;1.85;;;;;;;16.24;67.81;96716.50;10377226;28;20255;-75
2022/05/21 08:42:14;;;;;;;4.35;2.22;;;;;;;15.09;70.04;96741.94;10375080;28;20340;-76
2022/05/21 08:47:23;;;;;;;5.55;2.50;;;;;;;17.41;65.30;96679.63;10376357;28;20213;-75
2022/05/21 08:52:42;;;;;;;4.70;2.28;;;;;;;15.58;68.66;96730.72;10376586;28;20205;-74
2022/05/21 08:57:52;;;;;;;3.85;2.10;;;;;;;16.74;63.79;96651.09;10375514;28;20312;-75
2022/05/21 09:02:54;;;;;;;3.72;2.03;;;;;;;18.17;60.32;96610.34;10376201;28;20189;-76
2022/05/21 09:08:16;;;;;;;4.72;2.10;;;;;;;17.04;61.74;96631.47;10376116;28;20280;-75
2022/05/21 09:13:32;;;;;;;3.72;1.60;;;;;;;17.44;60.30;96608.53;10358221;28;20198;-75
2022/05/21 09:18:33;;;;;;;4.20;1.80;;;;;;;18.32;58.32;96580.16;10358110;28;20193;-75
2022/05/21 09:23:55;;;;;;;4.13;2.13;;;;;;;16.56;64.38;96685.19;10375124;28;20189;-75
2022/05/21 09:29:25;;;;;;;2.28;1.30;;;;;;;17.54;60.04;96610.78;10375157;28;20699;-75
2022/05/21 09:34:29;;;;;;;2.25;1.17;;;;;;;19.48;56.26;96567.69;10357712;28;20186;-74
2022/05/21 09:39:34;;;;;;;2.30;1.63;;;;;;;15.69;63.51;96668.66;10357053;28;20228;-74
2022/05/21 09:50:03;;;;;;;2.85;1.33;;;;;;;16.64;61.00;96626.81;10374717;28;20263;-74
2022/05/21 09:55:05;;;;;;;5.15;1.70;;;;;;;17.97;59.32;96626.28;10374016;28;20225;-74
2022/05/21 10:00:28;;;;;;;2.30;1.55;;;;;;;18.01;59.11;96634.66;10356660;28;20654;-74
2022/05/21 10:05:36;;;;;;;3.25;1.58;;;;;;;17.41;59.02;96603.66;10339998;28;20229;-75
2022/05/21 10:11:00;;;;;;;6.07;2.00;;;;;;;20.21;55.78;96595.47;10355734;28;20566;-75
2022/05/21 10:16:15;;;;;;;3.63;1.83;;;;;;;18.96;55.29;96551.09;10356752;28;20227;-74
2022/05/21 10:21:25;;;;;;;2.83;1.38;;;;;;;17.80;56.25;96574.72;10373458;28;20224;-74
2022/05/21 10:26:35;;;;;;;2.22;1.58;;;;;;;15.96;61.30;96647.78;10322050;28;20272;-74
2022/05/21 10:31:46;;;;;;;2.53;1.60;;;;;;;17.02;61.01;96662.63;10355396;28;20193;-75
2022/05/21 10:36:58;;;;;;;2.47;1.75;;;;;;;17.39;59.93;96650.69;10355084;28;20200;-75
2022/05/21 10:42:47;;;;;;;2.25;1.17;;;;;;;18.61;56.39;96585.97;10372444;28;20189;-75
2022/05/21 10:48:09;;;;;;;1.98;1.77;;;;;;;16.50;60.97;96649.75;10167867;29;20701;-75
2022/05/21 10:53:26;;;;;;;3.97;1.83;;;;;;;16.00;62.96;96676.28;10340582;28;20227;-74
2022/05/21 10:58:57;;;;;;;4.78;1.90;;;;;;;16.00;62.95;96681.56;10354370;28;20575;-75
2022/05/21 11:04:22;;;;;;;5.18;2.00;;;;;;;17.96;59.85;96650.34;10371771;28;20195;-74
2022/05/21 11:09:37;;;;;;;3.17;1.55;;;;;;;18.03;59.88;96656.47;10353968;28;20193;-75
2022/05/21 11:14:46;;;;;;;5.03;1.83;;;;;;;17.21;57.49;96563.09;10353636;28;20328;-74
2022/05/21 11:19:52;;;;;;;2.17;1.30;;;;;;;18.58;56.50;96568.63;10353478;28;20328;-75
2022/05/21 11:25:09;;;;;;;2.20;1.45;;;;;;;18.60;56.63;96589.63;10353742;28;20224;-75
2022/05/21 11:30:15;;;;;;;2.60;1.50;;;;;;;20.39;53.42;96541.47;10353890;28;20215;-75
2022/05/21 11:46:35;;;;;;;3.33;1.13;;;;;;;18.91;55.32;96564.19;10355303;28;20244;-74
2022/05/21 11:51:36;;;;;;;1.92;1.15;;;;;;;18.23;55.86;96566.28;10370926;28;20280;-75
2022/05/21 11:57:03;;;;;;;1.13;0.93;;;;;;;18.88;55.30;96584.84;10352742;28;20602;-76
2022/05/21 12:02:24;;;;;;;3.65;1.25;;;;;;;19.83;54.21;96569.88;10370888;28;20200;-75
2022/05/21 12:07:49;;;;;;;2.95;1.05;;;;;;;19.84;52.27;96518.34;10352693;28;20227;-76
2022/05/21 12:13:05;;;;;;;4.07;0.90;;;;;;;21.70;49.11;96489.38;10370603;28;20196;-77
2022/05/21 12:18:34;;;;;;;3.35;0.93;;;;;;;20.96;48.63;96460.44;10369923;28;20250;-76
2022/05/21 12:23:35;;;;;;;4.53;1.10;;;;;;;19.41;51.17;96497.84;10370156;28;20280;-76
2022/05/21 12:28:51;;;;;;;1.83;0.95;;;;;;;20.37;49.30;96462.88;10352187;28;20757;-76
2022/05/21 12:34:15;;;;;;;4.68;1.00;;;;;;;19.77;51.74;96514.94;10377114;28;20672;-76
2022/05/21 12:39:19;;;;;;;4.40;1.20;;;;;;;19.61;50.30;96484.38;10359560;28;20200;-76
2022/05/21 12:44:45;;;;;;;5.72;1.00;;;;;;;19.70;50.79;96503.53;10359717;28;20217;-76
2022/05/21 12:49:48;;;;;;;4.28;1.30;;;;;;;18.88;54.98;96600.75;10359526;28;20205;-76
2022/05/21 12:54:49;;;;;;;1.95;0.90;;;;;;;19.38;53.35;96573.47;10376614;28;20697;-76
2022/05/21 13:00:00;;;;;;;5.32;1.20;;;;;;;19.70;53.21;96584.06;10376165;28;20205;-76
2022/05/21 13:05:01;;;;;;;2.58;0.90;;;;;;;20.38;50.62;96536.34;10358808;28;20340;-76
2022/05/21 13:10:05;;;;;;;1.83;1.13;;;;;;;21.36;49.91;96518.41;10375763;28;20328;-76
2022/05/21 13:15:09;;;;;;;2.78;0.98;;;;;;;20.76;47.28;96426.94;10358333;28;20546;-76
2022/05/21 13:20:32;;;;;;;1.30;0.80;;;;;;;22.04;46.84;96453.03;10357929;28;20613;-76
2022/05/21 13:25:32;;;;;;;1.95;1.08;;;;;;;19.66;49.09;96435.88;10357088;28;20252;-76
2022/05/21 13:30:35;;;;;;;5.45;0.77;;;;;;;18.91;51.67;96487.22;10357747;28;20228;-76
2022/05/21 13:35:38;;;;;;;1.50;0.80;;;;;;;19.18;51.28;96487.84;10357634;28;20296;-76
2022/05/21 13:40:50;;;;;;;5.15;1.35;;;;;;;19.66;49.00;96455.28;10340916;28;20190;-76
2022/05/21 13:45:57;;;;;;;2.83;0.93;;;;;;;19.26;51.02;96516.78;10356940;28;20227;-76
2022/05/21 13:50:57;;;;;;;3.53;1.15;;;;;;;18.84;53.53;96567.66;10374709;28;20190;-76
2022/05/21 13:56:02;;;;;;;2.25;0.88;;;;;;;18.51;53.54;96573.97;10356090;28;20259;-76
2022/05/21 14:01:22;;;;;;;3.63;0.98;;;;;;;18.21;55.93;96631.97;10374259;28;20213;-76
2022/05/21 14:06:23;;;;;;;4.95;1.15;;;;;;;17.63;59.15;96685.59;10373505;28;20307;-76
2022/05/21 14:11:25;;;;;;;3.00;1.20;;;;;;;19.89;53.19;96600.91;10374060;28;20190;-76
2022/05/21 14:16:33;;;;;;;4.10;0.93;;;;;;;21.37;48.23;96499.53;10355597;28;20252;-76
2022/05/21 14:21:34;;;;;;;4.55;1.30;;;;;;;20.17;51.63;96561.56;10355893;28;20259;-76
2022/05/21 14:26:35;;;;;;;6.07;1.27;;;;;;;19.26;53.59;96577.84;10355139;28;20300;-76
2022/05/21 14:31:39;;;;;;;1.48;1.15;;;;;;;18.63;55.00;96613.09;10355374;28;20296;-76
2022/05/21 14:36:45;;;;;;;3.95;1.20;;;;;;;17.47;57.81;96642.56;10372853;28;20276;-76
2022/05/21 14:41:48;;;;;;;7.15;1.42;;;;;;;17.60;60.54;96723.06;10355001;28;20569;-76
2022/05/21 14:57:29;;;;;;;2.42;1.50;;;;;;;16.98;60.84;96707.16;10357039;28;20719;-76
2022/05/21 15:02:30;;;;;;;7.47;1.65;;;;;;;17.32;60.03;96692.25;10371703;28;20229;-75
2022/05/21 15:07:31;;;;;;;3.70;1.17;;;;;;;17.44;56.14;96611.19;10371831;28;20220;-76
2022/05/21 15:12:33;;;;;;;1.63;1.08;;;;;;;17.58;55.34;96596.13;10354176;28;20197;-76
2022/05/21 15:17:33;;;;;;;3.65;1.10;;;;;;;17.21;55.36;96579.81;10371436;28;20189;-76
2022/05/21 15:22:35;;;;;;;3.13;1.17;;;;;;;17.11;57.24;96621.72;10371539;28;20640;-76
2022/05/21 15:27:38;;;;;;;1.67;1.00;;;;;;;18.19;54.21;96583.63;10353231;28;20316;-76
2022/05/21 15:32:40;;;;;;;1.77;1.10;;;;;;;20.10;48.70;96473.88;10354147;28;20281;-76
2022/05/21 15:37:40;;;;;;;4.53;1.10;;;;;;;21.71;46.17;96465.13;10353304;28;20185;-76
2022/05/21 15:42:44;;;;;;;5.35;1.40;;;;;;;23.41;42.36;96417.50;10371082;28;20197;-76
2022/05/21 15:47:45;;;;;;;2.55;1.05;;;;;;;23.07;42.51;96409.50;10353759;28;20228;-76
2022/05/21 15:52:45;;;;;;;5.13;1.08;;;;;;;21.90;44.46;96430.34;10370487;28;20215;-76
2022/05/21 15:57:47;;;;;;;2.88;1.60;;;;;;;20.12;45.92;96403.47;10370719;28;20225;-76
2022/05/21 16:02:48;;;;;;;2.40;1.42;;;;;;;18.53;48.80;96435.81;10370442;28;20220;-76
2022/05/21 16:07:48;;;;;;;2.53;1.33;;;;;;;19.21;48.68;96466.97;10376055;28;20233;-76
2022/05/21 16:12:49;;;;;;;2.30;1.27;;;;;;;19.69;48.22;96472.66;10361026;28;20616;-76
2022/05/21 16:17:50;;;;;;;3.83;1.40;;;;;;;19.56;47.97;96452.34;10377660;28;20530;-76
2022/05/21 16:22:50;;;;;;;4.18;1.95;;;;;;;18.86;47.28;96427.63;10378148;28;20200;-76
2022/05/21 16:27:51;;;;;;;2.78;1.50;;;;;;;17.85;49.71;96476.03;10376180;28;20312;-75
2022/05/21 16:32:51;;;;;;;6.22;1.30;;;;;;;17.15;51.23;96481.84;10377625;28;20198;-75
2022/05/21 16:37:52;;;;;;;4.60;1.50;;;;;;;17.59;52.06;96528.84;10343478;28;20220;-76
2022/05/21 16:42:52;;;;;;;3.10;1.30;;;;;;;17.72;51.44;96519.25;10359633;28;20252;-76
2022/05/21 16:47:53;;;;;;;4.63;1.85;;;;;;;16.62;55.74;96597.13;10376778;28;20217;-76
2022/05/21 16:52:54;;;;;;;4.95;1.70;;;;;;;16.48;55.52;96577.72;10376780;28;20210;-76
2022/05/21 16:57:54;;;;;;;2.83;1.40;;;;;;;16.32;57.07;96600.00;10376668;28;20225;-76
2022/05/21 17:02:54;;;;;;;6.15;1.92;;;;;;;16.41;57.88;96620.00;10376463;28;20224;-76
2022/05/21 17:07:55;;;;;;;3.80;2.17;;;;;;;16.63;58.24;96640.25;10376240;28;20582;-76
2022/05/21 17:12:56;;;;;;;6.15;1.90;;;;;;;16.46;57.55;96614.16;10358549;28;20672;-76
2022/05/21 17:17:56;;;;;;;4.07;1.70;;;;;;;16.58;56.03;96575.53;10375459;28;20246;-75
2022/05/21 17:22:56;;;;;;;4.38;2.00;;;;;;;16.59;56.12;96593.03;10375519;28;20213;-76
2022/05/21 17:33:20;;;;;;;4.47;1.90;;;;;;;16.35;57.63;96604.91;10375094;28;20193;-76
2022/05/21 17:38:21;;;;;;;4.20;1.83;;;;;;;15.83;59.16;96640.56;10375082;28;20185;-76
2022/05/21 17:43:22;;;;;;;4.22;2.05;;;;;;;16.01;59.40;96648.03;10374582;28;20200;-76
2022/05/21 17:48:23;;;;;;;5.55;2.17;;;;;;;15.64;60.10;96657.88;10374452;28;20217;-76
2022/05/21 17:53:25;;;;;;;5.18;2.20;;;;;;;15.40;61.18;96667.78;10356669;28;20240;-76
2022/05/21 17:58:27;;;;;;;4.20;2.30;;;;;;;15.52;60.80;96670.75;10356769;28;20189;-75
2022/05/21 18:03:29;;;;;;;5.20;2.25;;;;;;;15.32;61.08;96676.63;10374140;28;20255;-75
2022/05/21 18:08:29;;;;;;;3.88;2.33;;;;;;;15.11;62.12;96703.81;10356281;28;20233;-76
2022/05/21 18:13:30;;;;;;;3.22;2.13;;;;;;;15.20;62.20;96703.72;10373674;28;20200;-76
2022/05/21 18:23:50;;;;;;;4.90;3.00;;;;;;;15.03;62.48;96689.94;10355477;28;20604;-76
2022/05/21 18:28:51;;;;;;;4.75;2.25;;;;;;;14.93;63.17;96713.94;10354538;28;20299;-76
2022/05/21 18:33:53;;;;;;;4.97;2.30;;;;;;;14.76;63.62;96716.78;10373132;28;20263;-76
2022/05/21 18:38:54;;;;;;;9.30;2.38;;;;;;;14.44;64.72;96725.81;10372388;28;20638;-75
2022/05/21 18:43:56;;;;;;;5.15;2.58;;;;;;;14.34;65.48;96733.19;10372839;28;20251;-76
2022/05/21 18:49:01;;;;;;;4.32;2.40;;;;;;;14.35;65.17;96737.44;10354738;28;20634;-75
2022/05/21 18:54:04;;;;;;;4.20;2.47;;;;;;;14.06;66.52;96749.59;10371878;28;20595;-75
2022/05/21 18:59:05;;;;;;;5.90;2.70;;;;;;;13.84;67.61;96759.97;10354742;28;20194;-75
2022/05/21 19:04:12;;;;;;;8.48;2.60;;;;;;;13.29;69.32;96790.69;10371904;28;20614;-76
2022/05/21 19:09:12;;;;;;;6.55;2.88;;;;;;;13.31;69.77;96795.78;10372215;28;20221;-75
2022/05/21 19:14:15;;;;;;;7.35;3.20;;;;;;;13.16;70.43;96791.22;10355263;28;20533;-75
2022/05/21 19:19:15;;;;;;;4.63;2.60;;;;;;;13.18;72.10;96810.28;10368958;28;20193;-76
2022/05/21 19:24:19;;;;;;;7.40;2.90;;;;;;;12.95;72.58;96820.69;10384527;28;20193;-75
2022/05/21 19:29:21;;;;;;;5.63;2.78;;;;;;;12.93;72.86;96814.00;10371786;28;20593;-75
2022/05/21 19:34:22;;;;;;;4.72;3.00;;;;;;;12.53;74.84;96836.75;10370967;28;20677;-75
2022/05/21 19:44:47;;;;;;;4.88;2.83;;;;;;;12.41;76.36;96828.38;10379172;28;20684;-75
2022/05/21 19:49:48;;;;;;;8.23;3.00;;;;;;;12.38;76.80;96832.13;10379267;28;20193;-76
2022/05/21 19:54:48;;;;;;;10.30;3.47;;;;;;;12.31;77.76;96826.72;10361208;28;20236;-76
2022/05/21 19:59:49;;;;;;;7.63;3.33;;;;;;;12.07;78.97;96827.53;10378655;28;20543;-75
2022/05/21 20:04:49;;;;;;;3.88;2.95;;;;;;;12.14;78.67;96811.94;10361272;28;20260;-76
2022/05/21 20:09:50;;;;;;;5.93;3.15;;;;;;;11.93;79.83;96815.06;10378386;28;20680;-75
2022/05/21 20:14:50;;;;;;;4.75;3.10;;;;;;;11.89;80.30;96816.31;10360924;28;20224;-75
2022/05/21 20:19:50;;;;;;;8.02;4.13;;;;;;;11.78;81.26;96820.91;10378120;28;20208;-75
2022/05/21 20:24:51;;;;;;;10.63;4.22;;;;;;;11.79;82.59;96834.84;10360071;28;20228;-75
2022/05/21 20:29:51;;;;;;;8.48;3.58;;;;;;;11.92;81.91;96819.47;10359167;28;20696;-75
2022/05/21 20:34:51;;;;;;;4.97;3.30;;;;;;;11.98;82.27;96820.63;10375277;28;20263;-75
2022/05/21 20:39:52;;;;;;;6.88;3.70;;;;;;;11.94;83.04;96819.31;10375809;28;20200;-75
2022/05/21 20:44:52;;;;;;;8.50;3.83;;;;;;;11.97;83.08;96816.34;10377190;28;20256;-75
2022/05/21 20:49:53;;;;;;;6.75;3.65;;;;;;;11.99;83.41;96818.81;10376796;28;20196;-75
2022/05/21 20:54:54;;;;;;;7.20;3.72;;;;;;;11.89;84.17;96821.56;10375997;28;20233;-75
2022/05/21 20:59:54;;;;;;;6.20;3.70;;;;;;;12.00;82.91;96816.03;10377056;28;20664;-75
2022/05/21 21:04:55;;;;;;;6.97;3.90;;;;;;;11.81;84.06;96806.63;10375888;28;20586;-75
2022/05/21 21:09:55;;;;;;;10.68;4.32;;;;;;;11.63;86.80;96833.00;10376280;28;20597;-75
2022/05/21 21:14:55;;;;;;;9.80;4.10;;;;;;;11.59;87.19;96829.03;10376183;28;20559;-75
2022/05/21 21:19:56;;;;;;;8.32;4.28;;;;;;;11.32;88.91;96822.25;10375850;28;20297;-75
2022/05/21 21:24:56;;;;;;;8.67;4.73;;;;;;;11.08;91.45;96815.91;10358126;28;20225;-75
2022/05/21 21:29:56;;;;;;;12.67;5.03;;;;;;;11.05;93.72;96818.84;10375361;28;20207;-75
2022/05/21 21:34:57;;;;;;;6.83;4.90;;;;;;;10.51;98.93;96817.25;10375649;28;20649;-74
2022/05/21 21:39:57;;;;;;;6.47;4.73;;;;;;;10.58;99.94;96822.69;10375022;28;20653;-75
2022/05/21 21:44:57;;;;;;;10.27;4.90;;;;;;;10.52;100.00;96818.88;10374909;28;20305;-75
2022/05/21 21:49:59;;;;;;;9.50;5.93;;;;;;;10.25;100.00;96819.81;10374707;28;20197;-75
2022/05/21 21:55:00;;;;;;;7.73;5.20;;;;;;;9.90;100.00;96823.28;10374234;28;20284;-75
2022/05/21 22:05:20;;;;;;;7.90;5.57;;;;;;;9.61;100.00;96821.66;10373529;28;20260;-75
2022/05/21 22:10:20;;;;;;;7.33;5.60;;;;;;;9.52;100.00;96825.97;10373990;28;20217;-74
2022/05/21 22:15:20;;;;;;;7.47;5.10;;;;;;;9.37;100.00;96830.91;10373400;28;20540;-75
2022/05/21 22:20:21;;;;;;;8.10;6.10;;;;;;;9.17;100.00;96834.56;10373038;28;20600;-74
2022/05/21 22:25:21;;;;;;;10.97;6.00;;;;;;;9.01;100.00;96835.19;10372730;28;20585;-74
2022/05/21 22:30:21;;;;;;;12.50;5.70;;;;;;;9.06;100.00;96836.38;10354204;28;20646;-74
2022/05/21 22:35:22;;;;;;;11.07;6.07;;;;;;;9.09;100.00;96833.50;10372346;28;20292;-75
2022/05/21 22:40:23;;;;;;;13.57;6.20;;;;;;;8.88;100.00;96833.72;10372597;28;20208;-74
2022/05/21 22:45:24;;;;;;;11.70;5.63;;;;;;;8.98;100.00;96833.69;10354605;28;20562;-75
2022/05/21 22:50:24;;;;;;;9.57;5.03;;;;;;;9.17;100.00;96829.34;10371859;28;20193;-74
2022/05/21 22:55:25;;;;;;;7.77;6.03;;;;;;;9.13;100.00;96823.59;10371653;28;20233;-75
2022/05/21 23:00:27;;;;;;;7.83;4.83;;;;;;;9.37;100.00;96817.00;10371553;28;20201;-75
2022/05/21 23:05:28;;;;;;;9.17;5.17;;;;;;;9.41;100.00;96807.91;10371480;28;20256;-74
2022/05/21 23:10:28;;;;;;;8.50;5.73;;;;;;;9.49;100.00;96810.59;10371295;28;20189;-74
2022/05/21 23:20:50;;;;;;;14.60;5.40;;;;;;;9.15;100.00;96800.72;10371072;28;20224;-74
2022/05/21 23:25:52;;;;;;;12.10;5.70;;;;;;;9.15;100.00;96802.53;10370461;28;20225;-74
2022/05/21 23:30:53;;;;;;;11.23;5.67;;;;;;;8.82;100.00;96789.06;10370960;28;20193;-74
2022/05/21 23:35:56;;;;;;;11.80;6.10;;;;;;;8.56;100.00;96782.69;10370617;28;20192;-73
2022/05/21 23:40:56;;;;;;;10.90;6.13;;;;;;;8.59;100.00;96771.16;10370855;28;20276;-73
2022/05/21 23:45:57;;;;;;;10.83;5.67;;;;;;;8.62;100.00;96777.84;10370499;28;20224;-73
2022/05/21 23:50:58;;;;;;;13.07;6.63;;;;;;;8.46;100.00;96765.41;10370582;28;20185;-74
2022/05/21 23:55:58;;;;;;;15.30;6.83;;;;;;;8.22;100.00;96758.81;10352547;28;20245;-73
